sensor_id;sensor_type;location;lat;lon;timestamp;P1;durP1;ratioP1;P2;durP2;ratioP2
71423;SDS011;59240;51.370;-0.486;2022-12-24T00:00:04;20.98;;;2.20;;
71423;SDS011;59240;51.370;-0.486;2022-12-24T00:02:32;28.30;;;2.50;;
71423;SDS011;59240;51.370;-0.486;2022-12-24T00:04:59;29.63;;;3.30;;
71423;SDS011;59240;51.370;-0.486;2022-12-24T00:07:27;20.90;;;2.50;;
71423;SDS011;59240;51.370;-0.486;2022-12-24T00:09:53;26.05;;;2.65;;
71423;SDS011;59240;51.370;-0.486;2022-12-24T00:12:20;22.90;;;2.45;;
71423;SDS011;59240;51.370;-0.486;2022-12-24T00:14:47;29.10;;;3.55;;
71423;SDS011;59240;51.370;-0.486;2022-12-24T00:17:13;25.55;;;2.30;;
71423;SDS011;59240;51.370;-0.486;2022-12-24T00:19:40;28.80;;;2.50;;
71423;SDS011;59240;51.370;-0.486;2022-12-24T00:22:08;27.02;;;2.83;;
71423;SDS011;59240;51.370;-0.486;2022-12-24T00:24:35;31.45;;;3.00;;
71423;SDS011;59240;51.370;-0.486;2022-12-24T00:27:02;27.02;;;2.80;;
71423;SDS011;59240;51.370;-0.486;2022-12-24T00:29:30;30.88;;;2.85;;
71423;SDS011;59240;51.370;-0.486;2022-12-24T00:31:58;22.17;;;2.23;;
71423;SDS011;59240;51.370;-0.486;2022-12-24T00:34:25;42.45;;;3.60;;
71423;SDS011;59240;51.370;-0.486;2022-12-24T00:36:52;27.02;;;4.35;;
71423;SDS011;59240;51.370;-0.486;2022-12-24T00:39:18;18.98;;;2.00;;
71423;SDS011;59240;51.370;-0.486;2022-12-24T00:41:45;17.38;;;2.00;;
71423;SDS011;59240;51.370;-0.486;2022-12-24T00:44:11;30.87;;;3.00;;
71423;SDS011;59240;51.370;-0.486;2022-12-24T00:46:39;25.27;;;2.63;;
71423;SDS011;59240;51.370;-0.486;2022-12-24T00:49:06;31.38;;;2.55;;
71423;SDS011;59240;51.370;-0.486;2022-12-24T00:51:34;26.55;;;2.42;;
71423;SDS011;59240;51.370;-0.486;2022-12-24T00:54:02;36.25;;;3.00;;
71423;SDS011;59240;51.370;-0.486;2022-12-24T00:56:29;31.03;;;3.07;;
71423;SDS011;59240;51.370;-0.486;2022-12-24T00:58:56;31.52;;;2.45;;
71423;SDS011;59240;51.370;-0.486;2022-12-24T01:01:23;30.25;;;2.55;;
71423;SDS011;59240;51.370;-0.486;2022-12-24T01:03:51;33.58;;;2.47;;
71423;SDS011;59240;51.370;-0.486;2022-12-24T01:06:18;22.33;;;2.72;;
71423;SDS011;59240;51.370;-0.486;2022-12-24T01:08:49;33.20;;;3.20;;
71423;SDS011;59240;51.370;-0.486;2022-12-24T01:11:16;21.23;;;2.50;;
71423;SDS011;59240;51.370;-0.486;2022-12-24T01:13:43;24.80;;;2.17;;
71423;SDS011;59240;51.370;-0.486;2022-12-24T01:16:17;24.58;;;2.55;;
71423;SDS011;59240;51.370;-0.486;2022-12-24T01:18:46;26.23;;;2.97;;
71423;SDS011;59240;51.370;-0.486;2022-12-24T01:21:13;26.80;;;3.37;;
71423;SDS011;59240;51.370;-0.486;2022-12-24T01:23:40;30.92;;;2.50;;
71423;SDS011;59240;51.370;-0.486;2022-12-24T01:26:07;28.52;;;2.55;;
71423;SDS011;59240;51.370;-0.486;2022-12-24T01:28:37;25.60;;;2.28;;
71423;SDS011;59240;51.370;-0.486;2022-12-24T01:31:14;28.25;;;3.03;;
71423;SDS011;59240;51.370;-0.486;2022-12-24T01:33:42;39.17;;;3.53;;
71423;SDS011;59240;51.370;-0.486;2022-12-24T01:36:10;21.75;;;2.20;;
71423;SDS011;59240;51.370;-0.486;2022-12-24T01:38:37;24.70;;;2.38;;
71423;SDS011;59240;51.370;-0.486;2022-12-24T01:41:04;25.20;;;2.40;;
71423;SDS011;59240;51.370;-0.486;2022-12-24T01:43:50;20.83;;;2.00;;
71423;SDS011;59240;51.370;-0.486;2022-12-24T01:46:24;20.40;;;1.77;;
71423;SDS011;59240;51.370;-0.486;2022-12-24T01:48:55;23.42;;;2.30;;
71423;SDS011;59240;51.370;-0.486;2022-12-24T01:51:45;26.05;;;2.58;;
71423;SDS011;59240;51.370;-0.486;2022-12-24T01:57:06;23.15;;;2.60;;
71423;SDS011;59240;51.370;-0.486;2022-12-24T01:59:36;29.97;;;2.33;;
71423;SDS011;59240;51.370;-0.486;2022-12-24T02:02:05;26.35;;;2.55;;
71423;SDS011;59240;51.370;-0.486;2022-12-24T02:04:33;28.83;;;2.17;;
71423;SDS011;59240;51.370;-0.486;2022-12-24T02:07:21;25.65;;;2.10;;
71423;SDS011;59240;51.370;-0.486;2022-12-24T02:09:48;33.17;;;2.63;;
71423;SDS011;59240;51.370;-0.486;2022-12-24T02:12:19;20.20;;;3.05;;
71423;SDS011;59240;51.370;-0.486;2022-12-24T02:14:46;19.83;;;1.80;;
71423;SDS011;59240;51.370;-0.486;2022-12-24T02:31:05;24.95;;;2.22;;
71423;SDS011;59240;51.370;-0.486;2022-12-24T02:33:49;19.90;;;2.08;;
71423;SDS011;59240;51.370;-0.486;2022-12-24T02:36:26;26.38;;;2.05;;
71423;SDS011;59240;51.370;-0.486;2022-12-24T02:39:02;27.80;;;3.10;;
71423;SDS011;59240;51.370;-0.486;2022-12-24T02:41:34;24.23;;;2.53;;
71423;SDS011;59240;51.370;-0.486;2022-12-24T02:44:44;23.65;;;2.92;;
71423;SDS011;59240;51.370;-0.486;2022-12-24T02:47:16;29.15;;;3.60;;
71423;SDS011;59240;51.370;-0.486;2022-12-24T02:49:46;22.17;;;2.63;;
71423;SDS011;59240;51.370;-0.486;2022-12-24T02:55:06;24.63;;;2.13;;
71423;SDS011;59240;51.370;-0.486;2022-12-24T03:00:25;23.70;;;1.95;;
71423;SDS011;59240;51.370;-0.486;2022-12-24T03:03:06;20.98;;;2.45;;
71423;SDS011;59240;51.370;-0.486;2022-12-24T03:05:56;25.15;;;2.10;;
71423;SDS011;59240;51.370;-0.486;2022-12-24T03:08:46;22.20;;;3.67;;
71423;SDS011;59240;51.370;-0.486;2022-12-24T03:11:18;31.70;;;2.10;;
71423;SDS011;59240;51.370;-0.486;2022-12-24T03:13:45;28.55;;;2.47;;
71423;SDS011;59240;51.370;-0.486;2022-12-24T03:16:15;32.42;;;3.05;;
71423;SDS011;59240;51.370;-0.486;2022-12-24T03:18:46;28.25;;;2.47;;
71423;SDS011;59240;51.370;-0.486;2022-12-24T03:21:17;17.87;;;2.53;;
71423;SDS011;59240;51.370;-0.486;2022-12-24T03:23:49;38.08;;;3.45;;
71423;SDS011;59240;51.370;-0.486;2022-12-24T03:26:16;27.65;;;2.75;;
71423;SDS011;59240;51.370;-0.486;2022-12-24T03:28:44;26.70;;;2.13;;
71423;SDS011;59240;51.370;-0.486;2022-12-24T03:31:12;27.13;;;2.72;;
71423;SDS011;59240;51.370;-0.486;2022-12-24T03:33:39;24.63;;;2.60;;
71423;SDS011;59240;51.370;-0.486;2022-12-24T03:36:07;23.92;;;2.00;;
71423;SDS011;59240;51.370;-0.486;2022-12-24T03:38:34;31.60;;;3.17;;
71423;SDS011;59240;51.370;-0.486;2022-12-24T03:41:01;31.13;;;2.20;;
71423;SDS011;59240;51.370;-0.486;2022-12-24T03:43:29;17.73;;;2.00;;
71423;SDS011;59240;51.370;-0.486;2022-12-24T03:45:55;20.67;;;2.20;;
71423;SDS011;59240;51.370;-0.486;2022-12-24T03:48:22;28.75;;;2.15;;
71423;SDS011;59240;51.370;-0.486;2022-12-24T03:50:57;24.08;;;1.88;;
71423;SDS011;59240;51.370;-0.486;2022-12-24T03:53:24;27.20;;;2.47;;
71423;SDS011;59240;51.370;-0.486;2022-12-24T03:55:50;20.92;;;2.13;;
71423;SDS011;59240;51.370;-0.486;2022-12-24T03:58:17;31.77;;;2.43;;
71423;SDS011;59240;51.370;-0.486;2022-12-24T04:00:46;27.98;;;2.60;;
71423;SDS011;59240;51.370;-0.486;2022-12-24T04:03:13;28.77;;;2.65;;
71423;SDS011;59240;51.370;-0.486;2022-12-24T04:05:39;20.08;;;2.38;;
71423;SDS011;59240;51.370;-0.486;2022-12-24T04:08:06;22.13;;;2.00;;
71423;SDS011;59240;51.370;-0.486;2022-12-24T04:10:33;8.87;;;1.23;;
71423;SDS011;59240;51.370;-0.486;2022-12-24T04:12:59;20.30;;;1.73;;
71423;SDS011;59240;51.370;-0.486;2022-12-24T04:15:26;24.83;;;2.40;;
71423;SDS011;59240;51.370;-0.486;2022-12-24T04:17:52;30.90;;;2.42;;
71423;SDS011;59240;51.370;-0.486;2022-12-24T04:20:19;24.90;;;2.45;;
71423;SDS011;59240;51.370;-0.486;2022-12-24T04:22:45;19.93;;;2.23;;
71423;SDS011;59240;51.370;-0.486;2022-12-24T04:25:12;30.02;;;2.85;;
71423;SDS011;59240;51.370;-0.486;2022-12-24T04:27:38;28.30;;;2.13;;
71423;SDS011;59240;51.370;-0.486;2022-12-24T04:30:05;25.27;;;2.47;;
71423;SDS011;59240;51.370;-0.486;2022-12-24T04:32:32;26.05;;;2.10;;
71423;SDS011;59240;51.370;-0.486;2022-12-24T04:34:59;16.53;;;1.63;;
71423;SDS011;59240;51.370;-0.486;2022-12-24T04:37:25;23.63;;;2.20;;
71423;SDS011;59240;51.370;-0.486;2022-12-24T04:39:52;11.75;;;1.35;;
71423;SDS011;59240;51.370;-0.486;2022-12-24T04:42:18;22.30;;;1.63;;
71423;SDS011;59240;51.370;-0.486;2022-12-24T04:44:45;20.83;;;1.88;;
71423;SDS011;59240;51.370;-0.486;2022-12-24T04:47:11;24.53;;;1.80;;
71423;SDS011;59240;51.370;-0.486;2022-12-24T04:49:38;25.63;;;2.60;;
71423;SDS011;59240;51.370;-0.486;2022-12-24T04:52:04;15.40;;;1.58;;
71423;SDS011;59240;51.370;-0.486;2022-12-24T04:54:31;17.42;;;1.77;;
71423;SDS011;59240;51.370;-0.486;2022-12-24T04:56:57;18.65;;;2.15;;
71423;SDS011;59240;51.370;-0.486;2022-12-24T04:59:24;18.87;;;1.33;;
71423;SDS011;59240;51.370;-0.486;2022-12-24T05:01:50;22.52;;;2.13;;
71423;SDS011;59240;51.370;-0.486;2022-12-24T05:04:17;23.48;;;3.20;;
71423;SDS011;59240;51.370;-0.486;2022-12-24T05:06:43;18.67;;;1.50;;
71423;SDS011;59240;51.370;-0.486;2022-12-24T05:09:10;28.23;;;1.88;;
71423;SDS011;59240;51.370;-0.486;2022-12-24T05:11:36;20.23;;;1.80;;
71423;SDS011;59240;51.370;-0.486;2022-12-24T05:14:03;24.98;;;2.22;;
71423;SDS011;59240;51.370;-0.486;2022-12-24T05:16:30;19.40;;;2.03;;
71423;SDS011;59240;51.370;-0.486;2022-12-24T05:18:56;19.20;;;1.88;;
71423;SDS011;59240;51.370;-0.486;2022-12-24T05:21:23;14.13;;;1.30;;
71423;SDS011;59240;51.370;-0.486;2022-12-24T05:23:51;18.73;;;1.80;;
71423;SDS011;59240;51.370;-0.486;2022-12-24T05:26:51;24.77;;;2.33;;
71423;SDS011;59240;51.370;-0.486;2022-12-24T05:29:20;23.63;;;1.65;;
71423;SDS011;59240;51.370;-0.486;2022-12-24T05:31:47;18.13;;;1.88;;
71423;SDS011;59240;51.370;-0.486;2022-12-24T05:34:14;20.60;;;1.75;;
71423;SDS011;59240;51.370;-0.486;2022-12-24T05:36:42;24.00;;;1.93;;
71423;SDS011;59240;51.370;-0.486;2022-12-24T05:39:12;25.05;;;1.75;;
71423;SDS011;59240;51.370;-0.486;2022-12-24T05:41:41;14.38;;;1.55;;
71423;SDS011;59240;51.370;-0.486;2022-12-24T05:44:09;24.70;;;2.42;;
71423;SDS011;59240;51.370;-0.486;2022-12-24T05:46:35;26.05;;;1.85;;
71423;SDS011;59240;51.370;-0.486;2022-12-24T05:49:02;21.43;;;1.87;;
71423;SDS011;59240;51.370;-0.486;2022-12-24T05:51:29;24.80;;;2.40;;
71423;SDS011;59240;51.370;-0.486;2022-12-24T05:53:55;33.47;;;2.58;;
71423;SDS011;59240;51.370;-0.486;2022-12-24T05:56:22;19.85;;;1.88;;
71423;SDS011;59240;51.370;-0.486;2022-12-24T05:58:50;29.17;;;2.30;;
71423;SDS011;59240;51.370;-0.486;2022-12-24T06:01:19;29.13;;;2.73;;
71423;SDS011;59240;51.370;-0.486;2022-12-24T06:03:46;17.50;;;1.42;;
71423;SDS011;59240;51.370;-0.486;2022-12-24T06:06:16;19.80;;;1.85;;
71423;SDS011;59240;51.370;-0.486;2022-12-24T06:08:46;17.25;;;1.50;;
71423;SDS011;59240;51.370;-0.486;2022-12-24T06:11:15;32.10;;;3.65;;
71423;SDS011;59240;51.370;-0.486;2022-12-24T06:13:43;18.13;;;1.50;;
71423;SDS011;59240;51.370;-0.486;2022-12-24T06:16:11;19.67;;;1.45;;
71423;SDS011;59240;51.370;-0.486;2022-12-24T06:18:39;21.33;;;2.17;;
71423;SDS011;59240;51.370;-0.486;2022-12-24T06:21:07;20.92;;;1.60;;
71423;SDS011;59240;51.370;-0.486;2022-12-24T06:23:34;17.80;;;1.77;;
71423;SDS011;59240;51.370;-0.486;2022-12-24T06:26:04;20.07;;;1.47;;
71423;SDS011;59240;51.370;-0.486;2022-12-24T06:28:33;25.75;;;1.80;;
71423;SDS011;59240;51.370;-0.486;2022-12-24T06:31:01;16.70;;;1.35;;
71423;SDS011;59240;51.370;-0.486;2022-12-24T06:33:30;21.77;;;1.50;;
71423;SDS011;59240;51.370;-0.486;2022-12-24T06:35:57;22.98;;;2.03;;
71423;SDS011;59240;51.370;-0.486;2022-12-24T06:38:24;16.50;;;1.70;;
71423;SDS011;59240;51.370;-0.486;2022-12-24T06:40:57;18.40;;;1.98;;
71423;SDS011;59240;51.370;-0.486;2022-12-24T06:43:23;19.17;;;1.55;;
71423;SDS011;59240;51.370;-0.486;2022-12-24T06:45:50;22.27;;;2.03;;
71423;SDS011;59240;51.370;-0.486;2022-12-24T06:48:17;25.35;;;1.67;;
71423;SDS011;59240;51.370;-0.486;2022-12-24T06:50:43;25.57;;;1.77;;
71423;SDS011;59240;51.370;-0.486;2022-12-24T06:53:10;25.50;;;1.83;;
71423;SDS011;59240;51.370;-0.486;2022-12-24T06:55:37;18.58;;;1.60;;
71423;SDS011;59240;51.370;-0.486;2022-12-24T06:58:04;18.60;;;1.90;;
71423;SDS011;59240;51.370;-0.486;2022-12-24T07:00:30;22.55;;;1.85;;
71423;SDS011;59240;51.370;-0.486;2022-12-24T07:02:57;23.00;;;1.57;;
71423;SDS011;59240;51.370;-0.486;2022-12-24T07:05:24;34.15;;;2.90;;
71423;SDS011;59240;51.370;-0.486;2022-12-24T07:07:50;14.32;;;1.00;;
71423;SDS011;59240;51.370;-0.486;2022-12-24T07:10:18;12.10;;;1.08;;
71423;SDS011;59240;51.370;-0.486;2022-12-24T07:12:45;20.80;;;1.45;;
71423;SDS011;59240;51.370;-0.486;2022-12-24T07:15:13;29.40;;;1.07;;
71423;SDS011;59240;51.370;-0.486;2022-12-24T07:17:40;18.75;;;1.38;;
71423;SDS011;59240;51.370;-0.486;2022-12-24T07:20:08;15.02;;;1.80;;
71423;SDS011;59240;51.370;-0.486;2022-12-24T07:22:37;24.45;;;1.42;;
71423;SDS011;59240;51.370;-0.486;2022-12-24T07:25:04;18.38;;;1.25;;
71423;SDS011;59240;51.370;-0.486;2022-12-24T07:27:31;22.57;;;1.17;;
71423;SDS011;59240;51.370;-0.486;2022-12-24T07:29:57;31.77;;;1.67;;
71423;SDS011;59240;51.370;-0.486;2022-12-24T07:32:24;17.55;;;1.45;;
71423;SDS011;59240;51.370;-0.486;2022-12-24T07:34:51;17.15;;;1.13;;
71423;SDS011;59240;51.370;-0.486;2022-12-24T07:37:17;26.40;;;1.50;;
71423;SDS011;59240;51.370;-0.486;2022-12-24T07:39:44;21.07;;;1.60;;
71423;SDS011;59240;51.370;-0.486;2022-12-24T07:42:10;23.88;;;2.00;;
71423;SDS011;59240;51.370;-0.486;2022-12-24T07:44:37;22.80;;;1.67;;
71423;SDS011;59240;51.370;-0.486;2022-12-24T07:47:04;16.85;;;1.42;;
71423;SDS011;59240;51.370;-0.486;2022-12-24T07:49:30;20.17;;;1.60;;
71423;SDS011;59240;51.370;-0.486;2022-12-24T07:51:57;19.23;;;1.30;;
71423;SDS011;59240;51.370;-0.486;2022-12-24T07:54:23;24.83;;;1.42;;
71423;SDS011;59240;51.370;-0.486;2022-12-24T07:56:50;18.65;;;1.27;;
71423;SDS011;59240;51.370;-0.486;2022-12-24T07:59:16;18.90;;;1.38;;
71423;SDS011;59240;51.370;-0.486;2022-12-24T08:01:43;21.13;;;1.60;;
71423;SDS011;59240;51.370;-0.486;2022-12-24T08:04:11;13.50;;;1.30;;
71423;SDS011;59240;51.370;-0.486;2022-12-24T08:06:38;22.90;;;1.85;;
71423;SDS011;59240;51.370;-0.486;2022-12-24T08:09:05;22.77;;;1.70;;
71423;SDS011;59240;51.370;-0.486;2022-12-24T08:11:32;23.00;;;2.38;;
71423;SDS011;59240;51.370;-0.486;2022-12-24T08:13:58;18.80;;;1.60;;
71423;SDS011;59240;51.370;-0.486;2022-12-24T08:16:25;15.07;;;1.50;;
71423;SDS011;59240;51.370;-0.486;2022-12-24T08:18:51;12.63;;;1.48;;
71423;SDS011;59240;51.370;-0.486;2022-12-24T08:21:18;18.15;;;1.23;;
71423;SDS011;59240;51.370;-0.486;2022-12-24T08:23:45;17.65;;;1.65;;
71423;SDS011;59240;51.370;-0.486;2022-12-24T08:26:12;20.20;;;1.48;;
71423;SDS011;59240;51.370;-0.486;2022-12-24T08:28:39;16.07;;;1.53;;
71423;SDS011;59240;51.370;-0.486;2022-12-24T08:31:05;14.63;;;1.48;;
71423;SDS011;59240;51.370;-0.486;2022-12-24T08:33:32;25.73;;;1.88;;
71423;SDS011;59240;51.370;-0.486;2022-12-24T08:36:00;13.40;;;1.30;;
71423;SDS011;59240;51.370;-0.486;2022-12-24T08:38:27;20.73;;;1.77;;
71423;SDS011;59240;51.370;-0.486;2022-12-24T08:40:54;16.63;;;1.67;;
71423;SDS011;59240;51.370;-0.486;2022-12-24T08:43:21;23.30;;;1.98;;
71423;SDS011;59240;51.370;-0.486;2022-12-24T08:45:47;25.20;;;2.22;;
71423;SDS011;59240;51.370;-0.486;2022-12-24T08:48:15;12.75;;;1.90;;
71423;SDS011;59240;51.370;-0.486;2022-12-24T08:50:42;19.17;;;1.63;;
71423;SDS011;59240;51.370;-0.486;2022-12-24T08:53:09;17.03;;;1.77;;
71423;SDS011;59240;51.370;-0.486;2022-12-24T08:55:36;19.60;;;2.13;;
71423;SDS011;59240;51.370;-0.486;2022-12-24T08:58:03;17.15;;;1.80;;
71423;SDS011;59240;51.370;-0.486;2022-12-24T09:00:30;14.15;;;2.03;;
71423;SDS011;59240;51.370;-0.486;2022-12-24T09:02:56;18.67;;;1.77;;
71423;SDS011;59240;51.370;-0.486;2022-12-24T09:05:23;21.00;;;1.70;;
71423;SDS011;59240;51.370;-0.486;2022-12-24T09:07:51;17.95;;;1.95;;
71423;SDS011;59240;51.370;-0.486;2022-12-24T09:10:18;25.10;;;1.85;;
71423;SDS011;59240;51.370;-0.486;2022-12-24T09:12:45;27.13;;;2.40;;
71423;SDS011;59240;51.370;-0.486;2022-12-24T09:15:12;15.52;;;1.17;;
71423;SDS011;59240;51.370;-0.486;2022-12-24T09:17:39;16.07;;;2.20;;
71423;SDS011;59240;51.370;-0.486;2022-12-24T09:20:06;20.05;;;1.95;;
71423;SDS011;59240;51.370;-0.486;2022-12-24T09:22:34;15.90;;;1.63;;
71423;SDS011;59240;51.370;-0.486;2022-12-24T09:25:02;29.30;;;2.45;;
71423;SDS011;59240;51.370;-0.486;2022-12-24T09:27:31;32.53;;;2.42;;
71423;SDS011;59240;51.370;-0.486;2022-12-24T09:29:58;18.10;;;2.17;;
71423;SDS011;59240;51.370;-0.486;2022-12-24T09:32:25;19.58;;;1.75;;
71423;SDS011;59240;51.370;-0.486;2022-12-24T09:34:52;20.67;;;2.17;;
71423;SDS011;59240;51.370;-0.486;2022-12-24T09:37:19;31.52;;;1.98;;
71423;SDS011;59240;51.370;-0.486;2022-12-24T09:39:45;24.98;;;2.40;;
71423;SDS011;59240;51.370;-0.486;2022-12-24T09:42:17;18.97;;;1.83;;
71423;SDS011;59240;51.370;-0.486;2022-12-24T09:45:17;28.50;;;2.45;;
71423;SDS011;59240;51.370;-0.486;2022-12-24T09:47:51;21.38;;;3.60;;
71423;SDS011;59240;51.370;-0.486;2022-12-24T09:50:23;29.70;;;3.60;;
71423;SDS011;59240;51.370;-0.486;2022-12-24T09:52:56;21.27;;;4.38;;
71423;SDS011;59240;51.370;-0.486;2022-12-24T09:55:27;22.57;;;4.67;;
71423;SDS011;59240;51.370;-0.486;2022-12-24T09:57:58;35.95;;;4.50;;
71423;SDS011;59240;51.370;-0.486;2022-12-24T10:00:34;30.38;;;4.95;;
71423;SDS011;59240;51.370;-0.486;2022-12-24T10:03:15;26.95;;;3.53;;
71423;SDS011;59240;51.370;-0.486;2022-12-24T10:11:18;18.45;;;2.65;;
71423;SDS011;59240;51.370;-0.486;2022-12-24T10:14:51;19.92;;;3.33;;
71423;SDS011;59240;51.370;-0.486;2022-12-24T10:27:45;29.60;;;3.63;;
71423;SDS011;59240;51.370;-0.486;2022-12-24T10:30:13;25.98;;;4.95;;
71423;SDS011;59240;51.370;-0.486;2022-12-24T10:32:43;18.85;;;3.47;;
71423;SDS011;59240;51.370;-0.486;2022-12-24T10:37:42;22.02;;;3.25;;
71423;SDS011;59240;51.370;-0.486;2022-12-24T10:40:53;30.80;;;3.47;;
71423;SDS011;59240;51.370;-0.486;2022-12-24T10:43:19;29.02;;;3.60;;
71423;SDS011;59240;51.370;-0.486;2022-12-24T10:45:49;31.77;;;3.53;;
71423;SDS011;59240;51.370;-0.486;2022-12-24T10:48:27;27.50;;;4.00;;
71423;SDS011;59240;51.370;-0.486;2022-12-24T10:50:57;24.08;;;3.10;;
71423;SDS011;59240;51.370;-0.486;2022-12-24T10:56:06;25.05;;;2.55;;
71423;SDS011;59240;51.370;-0.486;2022-12-24T10:58:35;20.40;;;2.08;;
71423;SDS011;59240;51.370;-0.486;2022-12-24T11:01:02;22.53;;;2.10;;
71423;SDS011;59240;51.370;-0.486;2022-12-24T11:03:30;20.88;;;2.78;;
71423;SDS011;59240;51.370;-0.486;2022-12-24T11:06:07;21.10;;;2.13;;
71423;SDS011;59240;51.370;-0.486;2022-12-24T11:08:42;24.65;;;2.90;;
71423;SDS011;59240;51.370;-0.486;2022-12-24T11:11:11;25.45;;;3.55;;
71423;SDS011;59240;51.370;-0.486;2022-12-24T11:13:44;20.00;;;2.47;;
71423;SDS011;59240;51.370;-0.486;2022-12-24T11:16:24;24.10;;;2.67;;
71423;SDS011;59240;51.370;-0.486;2022-12-24T11:18:53;19.67;;;1.95;;
71423;SDS011;59240;51.370;-0.486;2022-12-24T11:21:25;21.23;;;2.30;;
71423;SDS011;59240;51.370;-0.486;2022-12-24T11:24:05;19.35;;;2.63;;
71423;SDS011;59240;51.370;-0.486;2022-12-24T11:26:45;28.17;;;6.40;;
71423;SDS011;59240;51.370;-0.486;2022-12-24T11:31:41;24.10;;;4.10;;
71423;SDS011;59240;51.370;-0.486;2022-12-24T11:34:16;14.88;;;2.90;;
71423;SDS011;59240;51.370;-0.486;2022-12-24T11:36:48;23.13;;;4.70;;
71423;SDS011;59240;51.370;-0.486;2022-12-24T11:39:19;17.80;;;2.43;;
71423;SDS011;59240;51.370;-0.486;2022-12-24T11:41:48;25.13;;;4.35;;
71423;SDS011;59240;51.370;-0.486;2022-12-24T11:44:23;18.95;;;3.30;;
71423;SDS011;59240;51.370;-0.486;2022-12-24T11:46:52;21.33;;;2.70;;
71423;SDS011;59240;51.370;-0.486;2022-12-24T11:52:35;21.60;;;2.07;;
71423;SDS011;59240;51.370;-0.486;2022-12-24T11:54:49;22.88;;;3.60;;
71423;SDS011;59240;51.370;-0.486;2022-12-24T11:57:25;23.00;;;3.15;;
71423;SDS011;59240;51.370;-0.486;2022-12-24T11:59:58;26.65;;;2.58;;
71423;SDS011;59240;51.370;-0.486;2022-12-24T12:02:32;27.52;;;2.60;;
71423;SDS011;59240;51.370;-0.486;2022-12-24T12:05:04;26.90;;;2.67;;
71423;SDS011;59240;51.370;-0.486;2022-12-24T12:07:36;26.65;;;2.90;;
71423;SDS011;59240;51.370;-0.486;2022-12-24T12:12:48;23.02;;;2.50;;
71423;SDS011;59240;51.370;-0.486;2022-12-24T12:15:24;30.58;;;2.33;;
71423;SDS011;59240;51.370;-0.486;2022-12-24T12:17:55;16.67;;;2.13;;
71423;SDS011;59240;51.370;-0.486;2022-12-24T12:20:33;25.20;;;3.40;;
71423;SDS011;59240;51.370;-0.486;2022-12-24T12:23:15;26.52;;;2.63;;
71423;SDS011;59240;51.370;-0.486;2022-12-24T12:25:57;22.20;;;2.30;;
71423;SDS011;59240;51.370;-0.486;2022-12-24T12:28:37;22.73;;;2.03;;
71423;SDS011;59240;51.370;-0.486;2022-12-24T12:31:14;23.10;;;2.60;;
71423;SDS011;59240;51.370;-0.486;2022-12-24T12:33:48;22.45;;;2.63;;
71423;SDS011;59240;51.370;-0.486;2022-12-24T12:36:24;26.70;;;2.92;;
71423;SDS011;59240;51.370;-0.486;2022-12-24T12:38:56;29.27;;;2.60;;
71423;SDS011;59240;51.370;-0.486;2022-12-24T12:43:58;21.60;;;3.07;;
71423;SDS011;59240;51.370;-0.486;2022-12-24T12:46:43;20.30;;;2.58;;
71423;SDS011;59240;51.370;-0.486;2022-12-24T12:51:45;20.13;;;2.20;;
71423;SDS011;59240;51.370;-0.486;2022-12-24T12:57:12;24.33;;;2.13;;
71423;SDS011;59240;51.370;-0.486;2022-12-24T12:59:47;33.67;;;6.40;;
71423;SDS011;59240;51.370;-0.486;2022-12-24T13:11:20;26.63;;;2.37;;
71423;SDS011;59240;51.370;-0.486;2022-12-24T13:22:21;30.45;;;2.53;;
71423;SDS011;59240;51.370;-0.486;2022-12-24T13:24:57;18.93;;;2.90;;
71423;SDS011;59240;51.370;-0.486;2022-12-24T13:27:28;22.02;;;2.25;;
71423;SDS011;59240;51.370;-0.486;2022-12-24T13:29:58;26.42;;;3.30;;
71423;SDS011;59240;51.370;-0.486;2022-12-24T13:32:36;25.77;;;2.67;;
71423;SDS011;59240;51.370;-0.486;2022-12-24T13:37:48;29.60;;;3.17;;
71423;SDS011;59240;51.370;-0.486;2022-12-24T13:40:21;22.95;;;2.50;;
71423;SDS011;59240;51.370;-0.486;2022-12-24T13:50:35;28.23;;;3.80;;
71423;SDS011;59240;51.370;-0.486;2022-12-24T13:55:52;31.27;;;4.82;;
71423;SDS011;59240;51.370;-0.486;2022-12-24T13:58:21;32.13;;;4.00;;
71423;SDS011;59240;51.370;-0.486;2022-12-24T14:03:29;31.13;;;4.47;;
71423;SDS011;59240;51.370;-0.486;2022-12-24T14:06:05;19.35;;;3.60;;
71423;SDS011;59240;51.370;-0.486;2022-12-24T14:08:40;31.60;;;4.10;;
71423;SDS011;59240;51.370;-0.486;2022-12-24T14:11:12;22.65;;;2.88;;
71423;SDS011;59240;51.370;-0.486;2022-12-24T14:22:13;22.27;;;2.63;;
71423;SDS011;59240;51.370;-0.486;2022-12-24T14:25:12;21.67;;;2.58;;
71423;SDS011;59240;51.370;-0.486;2022-12-24T14:27:48;25.38;;;2.97;;
71423;SDS011;59240;51.370;-0.486;2022-12-24T14:30:20;17.63;;;2.70;;
71423;SDS011;59240;51.370;-0.486;2022-12-24T14:32:51;25.17;;;3.58;;
71423;SDS011;59240;51.370;-0.486;2022-12-24T14:35:26;18.77;;;2.55;;
71423;SDS011;59240;51.370;-0.486;2022-12-24T14:40:27;20.95;;;2.70;;
71423;SDS011;59240;51.370;-0.486;2022-12-24T14:43:09;22.30;;;2.70;;
71423;SDS011;59240;51.370;-0.486;2022-12-24T14:45:50;21.77;;;3.08;;
71423;SDS011;59240;51.370;-0.486;2022-12-24T14:48:26;25.70;;;3.65;;
71423;SDS011;59240;51.370;-0.486;2022-12-24T14:56:44;35.20;;;3.13;;
71423;SDS011;59240;51.370;-0.486;2022-12-24T14:59:14;18.02;;;3.42;;
71423;SDS011;59240;51.370;-0.486;2022-12-24T15:01:42;23.40;;;3.88;;
71423;SDS011;59240;51.370;-0.486;2022-12-24T15:09:09;23.63;;;3.80;;
71423;SDS011;59240;51.370;-0.486;2022-12-24T15:11:44;22.52;;;4.00;;
71423;SDS011;59240;51.370;-0.486;2022-12-24T15:14:13;23.02;;;4.25;;
71423;SDS011;59240;51.370;-0.486;2022-12-24T15:16:51;33.38;;;6.75;;
71423;SDS011;59240;51.370;-0.486;2022-12-24T15:19:25;34.55;;;8.35;;
71423;SDS011;59240;51.370;-0.486;2022-12-24T15:21:54;44.17;;;7.27;;
71423;SDS011;59240;51.370;-0.486;2022-12-24T15:26:57;28.38;;;6.07;;
71423;SDS011;59240;51.370;-0.486;2022-12-24T15:29:26;24.13;;;6.10;;
71423;SDS011;59240;51.370;-0.486;2022-12-24T15:32:00;31.30;;;6.22;;
71423;SDS011;59240;51.370;-0.486;2022-12-24T15:34:34;28.77;;;6.37;;
71423;SDS011;59240;51.370;-0.486;2022-12-24T15:39:43;32.58;;;5.63;;
71423;SDS011;59240;51.370;-0.486;2022-12-24T15:42:17;37.85;;;5.75;;
71423;SDS011;59240;51.370;-0.486;2022-12-24T15:44:55;31.42;;;3.95;;
71423;SDS011;59240;51.370;-0.486;2022-12-24T15:47:35;27.10;;;4.37;;
71423;SDS011;59240;51.370;-0.486;2022-12-24T15:50:14;23.05;;;3.97;;
71423;SDS011;59240;51.370;-0.486;2022-12-24T15:52:42;25.58;;;3.78;;
71423;SDS011;59240;51.370;-0.486;2022-12-24T15:57:58;23.67;;;3.03;;
71423;SDS011;59240;51.370;-0.486;2022-12-24T16:00:27;28.97;;;3.47;;
71423;SDS011;59240;51.370;-0.486;2022-12-24T16:05:59;28.88;;;3.38;;
71423;SDS011;59240;51.370;-0.486;2022-12-24T16:08:30;28.58;;;3.08;;
71423;SDS011;59240;51.370;-0.486;2022-12-24T16:13:35;30.67;;;3.80;;
71423;SDS011;59240;51.370;-0.486;2022-12-24T16:18:34;30.27;;;4.30;;
71423;SDS011;59240;51.370;-0.486;2022-12-24T16:21:04;24.67;;;3.75;;
71423;SDS011;59240;51.370;-0.486;2022-12-24T16:26:11;28.77;;;4.43;;
71423;SDS011;59240;51.370;-0.486;2022-12-24T16:28:37;31.05;;;4.65;;
71423;SDS011;59240;51.370;-0.486;2022-12-24T16:31:04;35.60;;;7.88;;
71423;SDS011;59240;51.370;-0.486;2022-12-24T16:33:31;34.63;;;6.57;;
71423;SDS011;59240;51.370;-0.486;2022-12-24T16:35:57;33.00;;;7.30;;
71423;SDS011;59240;51.370;-0.486;2022-12-24T16:38:24;35.07;;;7.43;;
71423;SDS011;59240;51.370;-0.486;2022-12-24T16:40:51;45.38;;;8.68;;
71423;SDS011;59240;51.370;-0.486;2022-12-24T16:43:17;39.90;;;7.40;;
71423;SDS011;59240;51.370;-0.486;2022-12-24T16:46:04;35.50;;;9.65;;
71423;SDS011;59240;51.370;-0.486;2022-12-24T16:48:32;40.38;;;8.95;;
71423;SDS011;59240;51.370;-0.486;2022-12-24T16:51:02;29.30;;;6.77;;